sensor_id;sensor_type;location;lat;lon;timestamp;temperature;humidity
8947;DHT22;4508;48.790;9.028;2022-12-26T00:00:56;10.20;99.90
8947;DHT22;4508;48.790;9.028;2022-12-26T00:03:23;10.20;99.90
8947;DHT22;4508;48.790;9.028;2022-12-26T00:05:49;10.10;99.90
8947;DHT22;4508;48.790;9.028;2022-12-26T00:08:18;10.10;99.90
8947;DHT22;4508;48.790;9.028;2022-12-26T00:10:44;10.10;99.90
8947;DHT22;4508;48.790;9.028;2022-12-26T00:13:11;10.00;99.90
8947;DHT22;4508;48.790;9.028;2022-12-26T00:15:39;10.00;99.90
8947;DHT22;4508;48.790;9.028;2022-12-26T00:18:05;9.90;99.90
8947;DHT22;4508;48.790;9.028;2022-12-26T00:20:32;9.80;99.90
8947;DHT22;4508;48.790;9.028;2022-12-26T00:22:59;9.90;99.90
8947;DHT22;4508;48.790;9.028;2022-12-26T00:25:27;9.80;99.90
8947;DHT22;4508;48.790;9.028;2022-12-26T00:27:54;9.90;99.90
8947;DHT22;4508;48.790;9.028;2022-12-26T00:30:21;9.90;99.90
8947;DHT22;4508;48.790;9.028;2022-12-26T00:32:47;9.90;99.90
8947;DHT22;4508;48.790;9.028;2022-12-26T00:35:14;9.90;99.90
8947;DHT22;4508;48.790;9.028;2022-12-26T00:37:41;9.80;99.90
8947;DHT22;4508;48.790;9.028;2022-12-26T00:40:09;9.80;99.90
8947;DHT22;4508;48.790;9.028;2022-12-26T00:42:37;9.80;99.90
8947;DHT22;4508;48.790;9.028;2022-12-26T00:45:05;9.70;99.90
8947;DHT22;4508;48.790;9.028;2022-12-26T00:47:31;9.70;99.90
8947;DHT22;4508;48.790;9.028;2022-12-26T00:49:58;9.70;99.90
8947;DHT22;4508;48.790;9.028;2022-12-26T00:52:25;9.70;99.90
8947;DHT22;4508;48.790;9.028;2022-12-26T00:54:51;9.60;99.90
8947;DHT22;4508;48.790;9.028;2022-12-26T00:57:18;9.50;99.90
8947;DHT22;4508;48.790;9.028;2022-12-26T00:59:46;9.50;99.90
8947;DHT22;4508;48.790;9.028;2022-12-26T01:02:13;9.50;99.90
8947;DHT22;4508;48.790;9.028;2022-12-26T01:04:53;9.50;99.90
8947;DHT22;4508;48.790;9.028;2022-12-26T01:07:20;9.50;99.90
8947;DHT22;4508;48.790;9.028;2022-12-26T01:09:46;9.40;99.90
8947;DHT22;4508;48.790;9.028;2022-12-26T01:12:13;9.30;99.90
8947;DHT22;4508;48.790;9.028;2022-12-26T01:14:40;9.40;99.90
8947;DHT22;4508;48.790;9.028;2022-12-26T01:17:08;9.40;99.90
8947;DHT22;4508;48.790;9.028;2022-12-26T01:19:35;9.40;99.90
8947;DHT22;4508;48.790;9.028;2022-12-26T01:22:02;9.40;99.90
8947;DHT22;4508;48.790;9.028;2022-12-26T01:24:29;9.40;99.90
8947;DHT22;4508;48.790;9.028;2022-12-26T01:26:55;9.40;99.90
8947;DHT22;4508;48.790;9.028;2022-12-26T01:29:22;9.40;99.90
8947;DHT22;4508;48.790;9.028;2022-12-26T01:31:49;9.40;99.90
8947;DHT22;4508;48.790;9.028;2022-12-26T01:34:17;9.40;99.90
8947;DHT22;4508;48.790;9.028;2022-12-26T01:36:43;9.40;99.90
8947;DHT22;4508;48.790;9.028;2022-12-26T01:39:10;9.30;99.90
8947;DHT22;4508;48.790;9.028;2022-12-26T01:41:37;9.40;99.90
8947;DHT22;4508;48.790;9.028;2022-12-26T01:44:06;9.40;99.90
8947;DHT22;4508;48.790;9.028;2022-12-26T01:46:53;9.40;99.90
8947;DHT22;4508;48.790;9.028;2022-12-26T01:49:26;9.50;99.90
8947;DHT22;4508;48.790;9.028;2022-12-26T01:51:58;9.40;99.90
8947;DHT22;4508;48.790;9.028;2022-12-26T01:54:26;9.40;99.90
8947;DHT22;4508;48.790;9.028;2022-12-26T01:56:56;9.50;99.90
8947;DHT22;4508;48.790;9.028;2022-12-26T01:59:25;9.50;99.90
8947;DHT22;4508;48.790;9.028;2022-12-26T02:01:55;9.40;99.90
8947;DHT22;4508;48.790;9.028;2022-12-26T02:04:25;9.50;99.90
8947;DHT22;4508;48.790;9.028;2022-12-26T02:07:10;9.80;99.90
8947;DHT22;4508;48.790;9.028;2022-12-26T02:09:37;9.60;99.90
8947;DHT22;4508;48.790;9.028;2022-12-26T02:12:08;9.70;99.90
8947;DHT22;4508;48.790;9.028;2022-12-26T02:14:37;9.70;99.90
8947;DHT22;4508;48.790;9.028;2022-12-26T02:17:06;9.70;99.90
8947;DHT22;4508;48.790;9.028;2022-12-26T02:19:42;9.70;99.90
8947;DHT22;4508;48.790;9.028;2022-12-26T02:22:36;9.70;99.90
8947;DHT22;4508;48.790;9.028;2022-12-26T02:25:30;9.70;99.90
8947;DHT22;4508;48.790;9.028;2022-12-26T02:28:34;9.80;99.90
8947;DHT22;4508;48.790;9.028;2022-12-26T02:31:09;9.80;99.90
8947;DHT22;4508;48.790;9.028;2022-12-26T02:33:49;9.80;99.90
8947;DHT22;4508;48.790;9.028;2022-12-26T02:36:40;9.80;99.90
8947;DHT22;4508;48.790;9.028;2022-12-26T02:39:22;9.80;99.90
8947;DHT22;4508;48.790;9.028;2022-12-26T02:42:00;9.90;99.90
8947;DHT22;4508;48.790;9.028;2022-12-26T02:44:34;9.90;99.90
8947;DHT22;4508;48.790;9.028;2022-12-26T02:47:29;10.00;99.90
8947;DHT22;4508;48.790;9.028;2022-12-26T02:50:03;10.00;99.90
8947;DHT22;4508;48.790;9.028;2022-12-26T02:53:00;10.00;99.90
8947;DHT22;4508;48.790;9.028;2022-12-26T02:55:49;10.10;99.90
8947;DHT22;4508;48.790;9.028;2022-12-26T02:58:39;10.20;99.90
8947;DHT22;4508;48.790;9.028;2022-12-26T03:01:29;10.10;99.90
8947;DHT22;4508;48.790;9.028;2022-12-26T03:04:18;10.10;99.90
8947;DHT22;4508;48.790;9.028;2022-12-26T03:07:11;10.00;99.90
8947;DHT22;4508;48.790;9.028;2022-12-26T03:09:58;9.90;99.90
8947;DHT22;4508;48.790;9.028;2022-12-26T03:12:47;9.80;99.90
8947;DHT22;4508;48.790;9.028;2022-12-26T03:15:37;9.70;99.90
8947;DHT22;4508;48.790;9.028;2022-12-26T03:18:20;9.70;99.90
8947;DHT22;4508;48.790;9.028;2022-12-26T03:20:50;9.70;99.90
8947;DHT22;4508;48.790;9.028;2022-12-26T03:23:17;9.70;99.90
8947;DHT22;4508;48.790;9.028;2022-12-26T03:25:50;9.70;99.90
8947;DHT22;4508;48.790;9.028;2022-12-26T03:28:36;9.60;99.90
8947;DHT22;4508;48.790;9.028;2022-12-26T03:31:04;9.70;99.90
8947;DHT22;4508;48.790;9.028;2022-12-26T03:33:32;9.60;99.90
8947;DHT22;4508;48.790;9.028;2022-12-26T03:36:24;9.60;99.90
8947;DHT22;4508;48.790;9.028;2022-12-26T03:39:02;9.60;99.90
8947;DHT22;4508;48.790;9.028;2022-12-26T03:41:41;9.60;99.90
8947;DHT22;4508;48.790;9.028;2022-12-26T03:44:30;9.50;99.90
8947;DHT22;4508;48.790;9.028;2022-12-26T03:47:18;9.60;99.90
8947;DHT22;4508;48.790;9.028;2022-12-26T03:50:23;9.60;99.90
8947;DHT22;4508;48.790;9.028;2022-12-26T03:53:13;9.60;99.90
8947;DHT22;4508;48.790;9.028;2022-12-26T03:56:06;9.70;99.90
8947;DHT22;4508;48.790;9.028;2022-12-26T03:58:57;9.70;99.90
8947;DHT22;4508;48.790;9.028;2022-12-26T04:01:45;9.70;99.90
8947;DHT22;4508;48.790;9.028;2022-12-26T04:04:32;9.70;99.90
8947;DHT22;4508;48.790;9.028;2022-12-26T04:07:20;9.70;99.90
8947;DHT22;4508;48.790;9.028;2022-12-26T04:10:10;9.70;99.90
8947;DHT22;4508;48.790;9.028;2022-12-26T04:12:56;9.80;99.90
8947;DHT22;4508;48.790;9.028;2022-12-26T04:15:45;9.80;99.90
8947;DHT22;4508;48.790;9.028;2022-12-26T04:18:33;9.80;99.90
8947;DHT22;4508;48.790;9.028;2022-12-26T04:21:24;9.90;99.90
8947;DHT22;4508;48.790;9.028;2022-12-26T04:24:14;9.80;99.90
8947;DHT22;4508;48.790;9.028;2022-12-26T04:27:03;9.90;99.90
8947;DHT22;4508;48.790;9.028;2022-12-26T04:29:49;9.90;99.90
8947;DHT22;4508;48.790;9.028;2022-12-26T04:32:38;9.80;99.90
8947;DHT22;4508;48.790;9.028;2022-12-26T04:35:28;9.90;99.90
8947;DHT22;4508;48.790;9.028;2022-12-26T04:38:19;9.90;99.90
8947;DHT22;4508;48.790;9.028;2022-12-26T04:41:06;10.40;99.90
8947;DHT22;4508;48.790;9.028;2022-12-26T04:43:54;10.00;99.90
8947;DHT22;4508;48.790;9.028;2022-12-26T04:46:34;10.00;99.90
8947;DHT22;4508;48.790;9.028;2022-12-26T04:49:04;9.90;99.90
8947;DHT22;4508;48.790;9.028;2022-12-26T04:51:49;9.90;99.90
8947;DHT22;4508;48.790;9.028;2022-12-26T04:54:16;9.90;99.90
8947;DHT22;4508;48.790;9.028;2022-12-26T04:56:43;9.90;99.90
8947;DHT22;4508;48.790;9.028;2022-12-26T04:59:11;9.90;99.90
8947;DHT22;4508;48.790;9.028;2022-12-26T05:01:38;9.80;99.90
8947;DHT22;4508;48.790;9.028;2022-12-26T05:04:22;12.40;99.90
8947;DHT22;4508;48.790;9.028;2022-12-26T05:07:16;9.80;99.90
8947;DHT22;4508;48.790;9.028;2022-12-26T05:10:18;9.80;99.90
8947;DHT22;4508;48.790;9.028;2022-12-26T05:12:46;9.80;99.90
8947;DHT22;4508;48.790;9.028;2022-12-26T05:15:14;9.80;99.90
8947;DHT22;4508;48.790;9.028;2022-12-26T05:17:41;9.70;99.90
8947;DHT22;4508;48.790;9.028;2022-12-26T05:20:25;9.80;99.90
8947;DHT22;4508;48.790;9.028;2022-12-26T05:23:15;9.80;99.90
8947;DHT22;4508;48.790;9.028;2022-12-26T05:26:01;9.80;99.90
8947;DHT22;4508;48.790;9.028;2022-12-26T05:28:51;9.90;99.90
8947;DHT22;4508;48.790;9.028;2022-12-26T05:31:19;9.90;99.90
8947;DHT22;4508;48.790;9.028;2022-12-26T05:33:46;9.90;99.90
8947;DHT22;4508;48.790;9.028;2022-12-26T05:36:32;9.90;99.90
8947;DHT22;4508;48.790;9.028;2022-12-26T05:39:00;10.50;99.90
8947;DHT22;4508;48.790;9.028;2022-12-26T05:41:27;10.10;99.90
8947;DHT22;4508;48.790;9.028;2022-12-26T05:43:53;10.10;99.90
8947;DHT22;4508;48.790;9.028;2022-12-26T05:46:21;10.10;99.90
8947;DHT22;4508;48.790;9.028;2022-12-26T05:48:48;10.10;99.90
8947;DHT22;4508;48.790;9.028;2022-12-26T05:51:15;10.00;99.90
8947;DHT22;4508;48.790;9.028;2022-12-26T05:53:42;10.10;99.90
8947;DHT22;4508;48.790;9.028;2022-12-26T05:56:11;10.00;99.90
8947;DHT22;4508;48.790;9.028;2022-12-26T05:58:38;10.20;99.90
8947;DHT22;4508;48.790;9.028;2022-12-26T06:01:07;10.00;99.90
8947;DHT22;4508;48.790;9.028;2022-12-26T06:03:36;10.10;99.90
8947;DHT22;4508;48.790;9.028;2022-12-26T06:06:04;9.90;99.90
8947;DHT22;4508;48.790;9.028;2022-12-26T06:08:31;9.90;99.90
8947;DHT22;4508;48.790;9.028;2022-12-26T06:11:02;10.00;99.90
8947;DHT22;4508;48.790;9.028;2022-12-26T06:13:28;9.90;99.90
8947;DHT22;4508;48.790;9.028;2022-12-26T06:15:55;10.00;99.90
8947;DHT22;4508;48.790;9.028;2022-12-26T06:18:22;10.00;99.90
8947;DHT22;4508;48.790;9.028;2022-12-26T06:20:51;10.00;99.90
8947;DHT22;4508;48.790;9.028;2022-12-26T06:23:17;9.90;99.90
8947;DHT22;4508;48.790;9.028;2022-12-26T06:25:44;9.90;99.90
8947;DHT22;4508;48.790;9.028;2022-12-26T06:28:17;10.00;99.90
8947;DHT22;4508;48.790;9.028;2022-12-26T06:30:44;9.90;99.90
8947;DHT22;4508;48.790;9.028;2022-12-26T06:33:11;9.90;99.90
8947;DHT22;4508;48.790;9.028;2022-12-26T06:35:37;9.90;99.90
8947;DHT22;4508;48.790;9.028;2022-12-26T06:38:05;10.10;99.90
8947;DHT22;4508;48.790;9.028;2022-12-26T06:40:32;9.40;99.90
8947;DHT22;4508;48.790;9.028;2022-12-26T06:42:59;9.90;99.90
8947;DHT22;4508;48.790;9.028;2022-12-26T06:45:25;10.00;99.90
8947;DHT22;4508;48.790;9.028;2022-12-26T06:47:52;10.00;99.90
8947;DHT22;4508;48.790;9.028;2022-12-26T06:50:19;10.20;99.90
8947;DHT22;4508;48.790;9.028;2022-12-26T06:52:47;10.10;99.90
8947;DHT22;4508;48.790;9.028;2022-12-26T06:55:15;10.10;99.90
8947;DHT22;4508;48.790;9.028;2022-12-26T06:57:42;10.20;99.90
8947;DHT22;4508;48.790;9.028;2022-12-26T07:00:10;10.40;99.90
8947;DHT22;4508;48.790;9.028;2022-12-26T07:02:37;10.20;99.90
8947;DHT22;4508;48.790;9.028;2022-12-26T07:05:04;10.20;99.90
8947;DHT22;4508;48.790;9.028;2022-12-26T07:07:31;9.10;99.90
8947;DHT22;4508;48.790;9.028;2022-12-26T07:09:58;10.20;99.90
8947;DHT22;4508;48.790;9.028;2022-12-26T07:12:26;10.20;99.90
8947;DHT22;4508;48.790;9.028;2022-12-26T07:14:52;10.20;99.90
8947;DHT22;4508;48.790;9.028;2022-12-26T07:17:19;10.20;99.90
8947;DHT22;4508;48.790;9.028;2022-12-26T07:19:46;9.10;99.90
8947;DHT22;4508;48.790;9.028;2022-12-26T07:22:12;10.20;99.90
8947;DHT22;4508;48.790;9.028;2022-12-26T07:24:39;10.20;99.90
8947;DHT22;4508;48.790;9.028;2022-12-26T07:27:06;10.30;99.90
8947;DHT22;4508;48.790;9.028;2022-12-26T07:29:34;10.40;99.90
8947;DHT22;4508;48.790;9.028;2022-12-26T07:32:00;10.50;99.90
8947;DHT22;4508;48.790;9.028;2022-12-26T07:34:27;10.50;99.90
8947;DHT22;4508;48.790;9.028;2022-12-26T07:36:55;10.30;99.90
8947;DHT22;4508;48.790;9.028;2022-12-26T07:39:22;10.40;99.90
8947;DHT22;4508;48.790;9.028;2022-12-26T07:41:49;10.30;99.90
8947;DHT22;4508;48.790;9.028;2022-12-26T07:44:25;10.30;99.90
8947;DHT22;4508;48.790;9.028;2022-12-26T07:46:54;10.30;99.90
8947;DHT22;4508;48.790;9.028;2022-12-26T07:49:21;10.20;99.90
8947;DHT22;4508;48.790;9.028;2022-12-26T07:51:48;10.20;99.90
8947;DHT22;4508;48.790;9.028;2022-12-26T07:54:15;10.20;99.90
8947;DHT22;4508;48.790;9.028;2022-12-26T07:56:42;10.20;99.90
8947;DHT22;4508;48.790;9.028;2022-12-26T07:59:12;10.20;99.90
8947;DHT22;4508;48.790;9.028;2022-12-26T08:01:38;10.20;99.90
8947;DHT22;4508;48.790;9.028;2022-12-26T08:04:06;10.20;99.90
8947;DHT22;4508;48.790;9.028;2022-12-26T08:06:33;10.10;99.90
8947;DHT22;4508;48.790;9.028;2022-12-26T08:09:00;10.10;99.90
8947;DHT22;4508;48.790;9.028;2022-12-26T08:11:27;10.10;99.90
8947;DHT22;4508;48.790;9.028;2022-12-26T08:13:56;10.50;99.90
8947;DHT22;4508;48.790;9.028;2022-12-26T08:18:50;10.10;99.90
8947;DHT22;4508;48.790;9.028;2022-12-26T08:21:18;10.00;99.90
8947;DHT22;4508;48.790;9.028;2022-12-26T08:23:45;10.10;99.90
8947;DHT22;4508;48.790;9.028;2022-12-26T08:26:13;10.10;99.90
8947;DHT22;4508;48.790;9.028;2022-12-26T08:28:45;10.10;99.90
8947;DHT22;4508;48.790;9.028;2022-12-26T08:31:12;9.80;99.90
8947;DHT22;4508;48.790;9.028;2022-12-26T08:33:39;10.00;99.90
8947;DHT22;4508;48.790;9.028;2022-12-26T08:36:08;10.00;99.90
8947;DHT22;4508;48.790;9.028;2022-12-26T08:38:38;10.00;99.90
8947;DHT22;4508;48.790;9.028;2022-12-26T08:41:05;10.00;99.90
8947;DHT22;4508;48.790;9.028;2022-12-26T08:43:32;10.00;99.90
8947;DHT22;4508;48.790;9.028;2022-12-26T08:46:00;10.00;99.90
8947;DHT22;4508;48.790;9.028;2022-12-26T08:48:28;10.00;99.90
8947;DHT22;4508;48.790;9.028;2022-12-26T08:50:56;10.00;99.90
8947;DHT22;4508;48.790;9.028;2022-12-26T08:53:23;10.00;99.90
8947;DHT22;4508;48.790;9.028;2022-12-26T08:55:51;9.80;99.90
8947;DHT22;4508;48.790;9.028;2022-12-26T08:58:18;9.90;99.90
8947;DHT22;4508;48.790;9.028;2022-12-26T09:00:45;9.90;99.90
8947;DHT22;4508;48.790;9.028;2022-12-26T09:03:12;9.60;99.90
8947;DHT22;4508;48.790;9.028;2022-12-26T09:05:38;9.70;99.90
8947;DHT22;4508;48.790;9.028;2022-12-26T09:08:05;9.50;99.90
8947;DHT22;4508;48.790;9.028;2022-12-26T09:10:32;9.60;99.90
8947;DHT22;4508;48.790;9.028;2022-12-26T09:13:00;9.40;99.90
8947;DHT22;4508;48.790;9.028;2022-12-26T09:15:27;9.10;99.90
8947;DHT22;4508;48.790;9.028;2022-12-26T09:17:53;9.50;99.90
8947;DHT22;4508;48.790;9.028;2022-12-26T09:20:20;8.50;99.90
8947;DHT22;4508;48.790;9.028;2022-12-26T09:22:47;9.40;99.90
8947;DHT22;4508;48.790;9.028;2022-12-26T09:25:17;9.30;99.90
8947;DHT22;4508;48.790;9.028;2022-12-26T09:35:13;9.70;99.90
8947;DHT22;4508;48.790;9.028;2022-12-26T09:37:40;9.40;99.90
8947;DHT22;4508;48.790;9.028;2022-12-26T09:40:22;9.30;99.90
8947;DHT22;4508;48.790;9.028;2022-12-26T09:42:59;9.40;99.90
8947;DHT22;4508;48.790;9.028;2022-12-26T09:45:44;8.90;99.90
8947;DHT22;4508;48.790;9.028;2022-12-26T09:48:18;9.30;99.90
8947;DHT22;4508;48.790;9.028;2022-12-26T10:03:25;8.70;99.90
8947;DHT22;4508;48.790;9.028;2022-12-26T10:11:14;8.80;99.90
8947;DHT22;4508;48.790;9.028;2022-12-26T10:16:24;8.80;99.90
8947;DHT22;4508;48.790;9.028;2022-12-26T10:26:35;8.90;99.90
8947;DHT22;4508;48.790;9.028;2022-12-26T10:29:14;8.80;99.90
8947;DHT22;4508;48.790;9.028;2022-12-26T10:31:48;9.00;99.90
8947;DHT22;4508;48.790;9.028;2022-12-26T10:36:49;9.10;99.90
8947;DHT22;4508;48.790;9.028;2022-12-26T10:39:22;9.10;99.90
8947;DHT22;4508;48.790;9.028;2022-12-26T10:41:54;9.00;99.90
8947;DHT22;4508;48.790;9.028;2022-12-26T10:44:24;8.90;99.90
8947;DHT22;4508;48.790;9.028;2022-12-26T10:47:06;9.00;99.90
8947;DHT22;4508;48.790;9.028;2022-12-26T10:49:36;9.20;99.90
8947;DHT22;4508;48.790;9.028;2022-12-26T10:52:05;9.10;99.90
8947;DHT22;4508;48.790;9.028;2022-12-26T10:54:34;9.20;99.90
8947;DHT22;4508;48.790;9.028;2022-12-26T10:57:03;9.10;99.90
8947;DHT22;4508;48.790;9.028;2022-12-26T11:02:24;8.90;99.90
8947;DHT22;4508;48.790;9.028;2022-12-26T11:07:36;8.90;99.90
8947;DHT22;4508;48.790;9.028;2022-12-26T11:12:39;9.00;99.90
8947;DHT22;4508;48.790;9.028;2022-12-26T11:25:49;9.00;99.90
8947;DHT22;4508;48.790;9.028;2022-12-26T11:33:33;9.20;99.90
8947;DHT22;4508;48.790;9.028;2022-12-26T11:49:13;8.90;99.90
8947;DHT22;4508;48.790;9.028;2022-12-26T12:27:59;9.50;99.90
8947;DHT22;4508;48.790;9.028;2022-12-26T12:30:34;9.40;99.90
8947;DHT22;4508;48.790;9.028;2022-12-26T12:33:18;9.30;99.90
8947;DHT22;4508;48.790;9.028;2022-12-26T12:35:57;9.30;99.90
8947;DHT22;4508;48.790;9.028;2022-12-26T12:38:31;9.30;99.90
8947;DHT22;4508;48.790;9.028;2022-12-26T12:41:07;9.10;99.90
8947;DHT22;4508;48.790;9.028;2022-12-26T12:51:23;9.30;99.90
8947;DHT22;4508;48.790;9.028;2022-12-26T12:54:11;9.20;99.90
8947;DHT22;4508;48.790;9.028;2022-12-26T15:30:49;8.90;99.90
8947;DHT22;4508;48.790;9.028;2022-12-26T15:36:01;8.30;99.90
8947;DHT22;4508;48.790;9.028;2022-12-26T15:38:35;9.00;99.90
8947;DHT22;4508;48.790;9.028;2022-12-26T15:49:19;8.90;99.90
8947;DHT22;4508;48.790;9.028;2022-12-26T15:57:06;8.80;99.90
8947;DHT22;4508;48.790;9.028;2022-12-26T16:02:28;8.70;99.90
8947;DHT22;4508;48.790;9.028;2022-12-26T16:05:16;8.80;99.90
8947;DHT22;4508;48.790;9.028;2022-12-26T16:17:52;8.60;99.90
8947;DHT22;4508;48.790;9.028;2022-12-26T16:20:30;8.70;99.90
8947;DHT22;4508;48.790;9.028;2022-12-26T16:23:16;8.70;99.90
8947;DHT22;4508;48.790;9.028;2022-12-26T16:25:45;8.50;99.90
8947;DHT22;4508;48.790;9.028;2022-12-26T16:28:12;8.60;99.90
8947;DHT22;4508;48.790;9.028;2022-12-26T16:30:39;8.60;99.90
8947;DHT22;4508;48.790;9.028;2022-12-26T16:33:06;8.60;99.90
8947;DHT22;4508;48.790;9.028;2022-12-26T16:35:38;8.60;99.90
8947;DHT22;4508;48.790;9.028;2022-12-26T16:38:10;8.60;99.90
8947;DHT22;4508;48.790;9.028;2022-12-26T17:06:05;8.50;99.90
8947;DHT22;4508;48.790;9.028;2022-12-26T17:08:32;8.50;99.90
8947;DHT22;4508;48.790;9.028;2022-12-26T17:10:59;8.40;99.90
8947;DHT22;4508;48.790;9.028;2022-12-26T17:13:25;8.50;99.90
8947;DHT22;4508;48.790;9.028;2022-12-26T17:15:54;8.50;99.90
8947;DHT22;4508;48.790;9.028;2022-12-26T17:18:35;8.50;99.90
8947;DHT22;4508;48.790;9.028;2022-12-26T17:21:16;8.60;99.90
8947;DHT22;4508;48.790;9.028;2022-12-26T17:23:43;8.50;99.90
8947;DHT22;4508;48.790;9.028;2022-12-26T17:26:17;8.50;99.90
8947;DHT22;4508;48.790;9.028;2022-12-26T17:28:44;8.50;99.90
8947;DHT22;4508;48.790;9.028;2022-12-26T17:31:15;8.40;99.90
8947;DHT22;4508;48.790;9.028;2022-12-26T17:33:42;8.40;99.90
8947;DHT22;4508;48.790;9.028;2022-12-26T17:36:12;8.50;99.90
8947;DHT22;4508;48.790;9.028;2022-12-26T17:38:42;8.40;99.90
8947;DHT22;4508;48.790;9.028;2022-12-26T17:41:12;8.40;99.90
8947;DHT22;4508;48.790;9.028;2022-12-26T17:43:40;8.40;99.90
8947;DHT22;4508;48.790;9.028;2022-12-26T17:46:10;8.40;99.90
8947;DHT22;4508;48.790;9.028;2022-12-26T17:48:39;8.40;99.90
8947;DHT22;4508;48.790;9.028;2022-12-26T17:51:12;8.30;99.90
8947;DHT22;4508;48.790;9.028;2022-12-26T17:53:42;8.40;99.90
8947;DHT22;4508;48.790;9.028;2022-12-26T17:56:13;8.30;99.90
8947;DHT22;4508;48.790;9.028;2022-12-26T17:58:40;8.20;99.90
8947;DHT22;4508;48.790;9.028;2022-12-26T18:01:07;8.30;99.90
8947;DHT22;4508;48.790;9.028;2022-12-26T18:03:34;8.20;99.90
8947;DHT22;4508;48.790;9.028;2022-12-26T18:06:01;8.30;99.90
8947;DHT22;4508;48.790;9.028;2022-12-26T18:08:30;8.20;99.90
8947;DHT22;4508;48.790;9.028;2022-12-26T18:10:59;8.20;99.90
8947;DHT22;4508;48.790;9.028;2022-12-26T18:13:27;8.20;99.90
8947;DHT22;4508;48.790;9.028;2022-12-26T18:15:54;8.20;99.90
8947;DHT22;4508;48.790;9.028;2022-12-26T18:18:24;8.10;99.90
8947;DHT22;4508;48.790;9.028;2022-12-26T18:20:52;8.00;99.90
8947;DHT22;4508;48.790;9.028;2022-12-26T18:23:19;8.00;99.90
8947;DHT22;4508;48.790;9.028;2022-12-26T18:25:47;8.00;99.90
8947;DHT22;4508;48.790;9.028;2022-12-26T18:28:16;8.00;99.90
8947;DHT22;4508;48.790;9.028;2022-12-26T18:30:44;7.90;99.90
8947;DHT22;4508;48.790;9.028;2022-12-26T18:33:11;7.90;99.90
8947;DHT22;4508;48.790;9.028;2022-12-26T18:35:39;7.90;99.90
8947;DHT22;4508;48.790;9.028;2022-12-26T18:38:06;7.80;99.90
8947;DHT22;4508;48.790;9.028;2022-12-26T18:40:35;7.60;99.90
8947;DHT22;4508;48.790;9.028;2022-12-26T18:43:03;7.50;99.90
8947;DHT22;4508;48.790;9.028;2022-12-26T18:45:32;7.40;99.90
8947;DHT22;4508;48.790;9.028;2022-12-26T18:47:59;7.40;99.90
8947;DHT22;4508;48.790;9.028;2022-12-26T18:50:27;7.30;99.90
8947;DHT22;4508;48.790;9.028;2022-12-26T18:52:54;7.20;99.90
8947;DHT22;4508;48.790;9.028;2022-12-26T18:55:22;7.20;99.90
8947;DHT22;4508;48.790;9.028;2022-12-26T18:57:50;7.20;99.90
8947;DHT22;4508;48.790;9.028;2022-12-26T19:00:18;7.10;99.90
8947;DHT22;4508;48.790;9.028;2022-12-26T19:02:47;7.00;99.90
8947;DHT22;4508;48.790;9.028;2022-12-26T19:05:16;7.00;99.90
8947;DHT22;4508;48.790;9.028;2022-12-26T19:07:43;7.00;99.90
8947;DHT22;4508;48.790;9.028;2022-12-26T19:10:13;6.90;99.90
8947;DHT22;4508;48.790;9.028;2022-12-26T19:12:40;6.90;99.90
8947;DHT22;4508;48.790;9.028;2022-12-26T19:15:08;6.80;99.90
8947;DHT22;4508;48.790;9.028;2022-12-26T19:17:34;6.80;99.90
8947;DHT22;4508;48.790;9.028;2022-12-26T19:20:05;6.80;99.90
8947;DHT22;4508;48.790;9.028;2022-12-26T19:22:32;6.80;99.90
8947;DHT22;4508;48.790;9.028;2022-12-26T19:24:58;6.90;99.90
8947;DHT22;4508;48.790;9.028;2022-12-26T19:27:25;6.80;99.90
8947;DHT22;4508;48.790;9.028;2022-12-26T19:29:52;6.90;99.90
8947;DHT22;4508;48.790;9.028;2022-12-26T19:32:18;6.90;99.90
8947;DHT22;4508;48.790;9.028;2022-12-26T19:34:45;7.00;99.90
8947;DHT22;4508;48.790;9.028;2022-12-26T19:37:13;7.00;99.90
8947;DHT22;4508;48.790;9.028;2022-12-26T19:39:40;6.80;99.90
8947;DHT22;4508;48.790;9.028;2022-12-26T19:42:06;7.10;99.90
8947;DHT22;4508;48.790;9.028;2022-12-26T19:44:33;7.00;99.90
8947;DHT22;4508;48.790;9.028;2022-12-26T19:47:00;6.80;99.90
8947;DHT22;4508;48.790;9.028;2022-12-26T19:49:26;7.20;99.90
8947;DHT22;4508;48.790;9.028;2022-12-26T19:51:53;7.40;99.90
8947;DHT22;4508;48.790;9.028;2022-12-26T19:54:21;6.70;99.90
8947;DHT22;4508;48.790;9.028;2022-12-26T19:56:48;7.00;99.90
8947;DHT22;4508;48.790;9.028;2022-12-26T19:59:15;7.00;99.90
8947;DHT22;4508;48.790;9.028;2022-12-26T20:01:41;7.20;99.90
8947;DHT22;4508;48.790;9.028;2022-12-26T20:04:08;7.00;99.90
8947;DHT22;4508;48.790;9.028;2022-12-26T20:06:36;7.00;99.90
8947;DHT22;4508;48.790;9.028;2022-12-26T20:09:05;6.80;99.90
8947;DHT22;4508;48.790;9.028;2022-12-26T20:11:36;7.00;99.90
8947;DHT22;4508;48.790;9.028;2022-12-26T20:14:04;7.30;99.90
8947;DHT22;4508;48.790;9.028;2022-12-26T20:16:31;7.40;99.90
8947;DHT22;4508;48.790;9.028;2022-12-26T20:18:57;7.00;99.90
8947;DHT22;4508;48.790;9.028;2022-12-26T20:21:24;6.80;99.90
8947;DHT22;4508;48.790;9.028;2022-12-26T20:23:51;6.80;99.90
8947;DHT22;4508;48.790;9.028;2022-12-26T20:26:19;6.40;99.90
8947;DHT22;4508;48.790;9.028;2022-12-26T20:28:48;6.80;99.90
8947;DHT22;4508;48.790;9.028;2022-12-26T20:31:18;7.00;99.90
8947;DHT22;4508;48.790;9.028;2022-12-26T20:33:48;6.80;99.90
8947;DHT22;4508;48.790;9.028;2022-12-26T20:36:18;6.90;99.90
8947;DHT22;4508;48.790;9.028;2022-12-26T20:38:46;6.60;99.90
8947;DHT22;4508;48.790;9.028;2022-12-26T20:41:13;6.20;99.90
8947;DHT22;4508;48.790;9.028;2022-12-26T20:43:40;6.80;99.90
8947;DHT22;4508;48.790;9.028;2022-12-26T20:46:11;6.90;99.90
8947;DHT22;4508;48.790;9.028;2022-12-26T20:48:38;6.40;99.90
8947;DHT22;4508;48.790;9.028;2022-12-26T20:51:06;6.60;99.90
8947;DHT22;4508;48.790;9.028;2022-12-26T20:53:33;6.60;99.90
8947;DHT22;4508;48.790;9.028;2022-12-26T20:56:00;6.60;99.90
8947;DHT22;4508;48.790;9.028;2022-12-26T20:58:29;6.90;99.90
8947;DHT22;4508;48.790;9.028;2022-12-26T21:00:58;6.70;99.90
8947;DHT22;4508;48.790;9.028;2022-12-26T21:03:26;6.60;99.90
8947;DHT22;4508;48.790;9.028;2022-12-26T21:05:53;6.50;99.90
8947;DHT22;4508;48.790;9.028;2022-12-26T21:08:20;6.60;99.90
8947;DHT22;4508;48.790;9.028;2022-12-26T21:10:47;6.70;99.90
8947;DHT22;4508;48.790;9.028;2022-12-26T21:13:13;6.90;99.90
8947;DHT22;4508;48.790;9.028;2022-12-26T21:15:40;6.90;99.90
8947;DHT22;4508;48.790;9.028;2022-12-26T21:18:07;6.90;99.90
8947;DHT22;4508;48.790;9.028;2022-12-26T21:20:36;6.30;99.90
8947;DHT22;4508;48.790;9.028;2022-12-26T21:23:03;6.50;99.90
8947;DHT22;4508;48.790;9.028;2022-12-26T21:25:29;6.30;99.90
8947;DHT22;4508;48.790;9.028;2022-12-26T21:27:56;6.80;99.90
8947;DHT22;4508;48.790;9.028;2022-12-26T21:30:23;6.60;99.90
8947;DHT22;4508;48.790;9.028;2022-12-26T21:32:49;6.70;99.90
8947;DHT22;4508;48.790;9.028;2022-12-26T21:35:16;7.20;99.90
8947;DHT22;4508;48.790;9.028;2022-12-26T21:37:44;5.60;99.90
8947;DHT22;4508;48.790;9.028;2022-12-26T21:40:16;6.30;99.90
8947;DHT22;4508;48.790;9.028;2022-12-26T21:42:43;5.80;99.90
8947;DHT22;4508;48.790;9.028;2022-12-26T21:45:10;6.30;99.90
8947;DHT22;4508;48.790;9.028;2022-12-26T21:47:37;6.70;99.90
8947;DHT22;4508;48.790;9.028;2022-12-26T21:50:04;6.30;99.90
8947;DHT22;4508;48.790;9.028;2022-12-26T21:52:31;6.40;99.90
8947;DHT22;4508;48.790;9.028;2022-12-26T21:54:59;5.80;99.90
8947;DHT22;4508;48.790;9.028;2022-12-26T21:57:44;6.20;99.90
8947;DHT22;4508;48.790;9.028;2022-12-26T22:00:11;6.60;99.90
8947;DHT22;4508;48.790;9.028;2022-12-26T22:02:38;5.80;99.90
8947;DHT22;4508;48.790;9.028;2022-12-26T22:05:24;6.40;99.90
8947;DHT22;4508;48.790;9.028;2022-12-26T22:07:52;6.20;99.90
8947;DHT22;4508;48.790;9.028;2022-12-26T22:10:20;6.20;99.90
8947;DHT22;4508;48.790;9.028;2022-12-26T22:13:05;5.50;99.90